Time;durP1;ratioP1;P1;durP2;ratioP2;P2;SDS_P1;SDS_P2;PMS_P1;PMS_P2;Temp;Humidity;BMP_temperature;BMP_pressure;BME280_temperature;BME280_humidity;BME280_pressure;Samples;Min_cycle;Max_cycle;Signal;HPM_P1;HPM_P2
2023/03/27 00:00:58;;;;;;;16.60;5.40;;;;;;;11.03;100.00;100197.69;2080549;28;20244;-60
2023/03/27 00:02:00;;;;;;;10.63;4.80;;;;;;;11.01;100.00;100197.34;2081867;28;20392;-62
2023/03/27 00:03:03;;;;;;;10.57;4.70;;;;;;;10.99;100.00;100201.78;2080867;28;20819;-62
2023/03/27 00:04:04;;;;;;;10.43;4.73;;;;;;;10.93;100.00;100193.28;2081744;28;20521;-62
2023/03/27 00:05:04;;;;;;;6.43;4.10;;;;;;;10.76;100.00;100163.34;2081792;28;20956;-62
2023/03/27 00:06:07;;;;;;;10.17;4.30;;;;;;;10.95;100.00;100201.13;2081245;28;20811;-62
2023/03/27 00:07:08;;;;;;;6.47;3.90;;;;;;;10.91;100.00;100197.69;2080890;28;20657;-62
2023/03/27 00:08:08;;;;;;;7.00;4.17;;;;;;;10.92;100.00;100202.78;2080376;28;20494;-62
2023/03/27 00:09:09;;;;;;;7.87;4.10;;;;;;;10.88;100.00;100206.91;2080847;28;20188;-62
2023/03/27 00:10:11;;;;;;;6.60;4.30;;;;;;;10.84;100.00;100209.00;2081680;28;20271;-62
2023/03/27 00:11:12;;;;;;;5.50;3.90;;;;;;;10.82;100.00;100201.13;2081174;28;20189;-62
2023/03/27 00:12:12;;;;;;;8.30;4.00;;;;;;;10.09;100.00;100089.88;2081720;28;20419;-62
2023/03/27 00:13:13;;;;;;;7.13;3.80;;;;;;;10.76;100.00;100193.81;2080022;28;20446;-61
2023/03/27 00:14:14;;;;;;;6.33;3.70;;;;;;;10.71;100.00;100205.47;2079777;28;20192;-62
2023/03/27 00:15:16;;;;;;;8.87;3.67;;;;;;;10.72;100.00;100202.22;2080641;28;20185;-62
2023/03/27 00:16:17;;;;;;;7.20;3.80;;;;;;;10.72;100.00;100198.69;2079418;28;20418;-62
2023/03/27 00:17:18;;;;;;;7.53;3.30;;;;;;;10.72;100.00;100193.91;2080513;28;20484;-62
2023/03/27 00:18:18;;;;;;;9.23;4.27;;;;;;;10.15;100.00;100108.22;2081394;28;20416;-62
2023/03/27 00:19:19;;;;;;;8.17;4.13;;;;;;;10.68;100.00;100184.97;2080769;28;20279;-62
2023/03/27 00:20:22;;;;;;;6.30;3.73;;;;;;;10.00;100.00;100089.72;2080904;28;20189;-62
2023/03/27 00:21:22;;;;;;;5.70;3.57;;;;;;;9.91;100.00;100070.22;2081500;28;20217;-62
2023/03/27 00:22:23;;;;;;;9.90;3.80;;;;;;;10.62;100.00;100186.72;2081540;28;20436;-62
2023/03/27 00:23:24;;;;;;;10.53;4.13;;;;;;;10.21;100.00;100125.88;2083937;28;20184;-61
2023/03/27 00:24:25;;;;;;;15.43;5.00;;;;;;;10.54;100.00;100181.81;2088306;28;20188;-62
2023/03/27 00:25:27;;;;;;;11.83;4.77;;;;;;;10.52;100.00;100181.50;2081868;28;20419;-62
2023/03/27 00:26:29;;;;;;;14.07;5.03;;;;;;;10.49;100.00;100182.38;2089811;28;20486;-62
2023/03/27 00:27:30;;;;;;;10.43;4.53;;;;;;;10.47;100.00;100166.22;2081773;28;20436;-62
2023/03/27 00:28:31;;;;;;;10.93;4.20;;;;;;;10.43;100.00;100173.84;2081482;28;20455;-62
2023/03/27 00:29:32;;;;;;;7.70;4.00;;;;;;;10.42;100.00;100171.53;2081304;28;20484;-62
2023/03/27 00:30:34;;;;;;;9.53;4.17;;;;;;;10.37;100.00;100164.56;2085519;28;20218;-62
2023/03/27 00:31:34;;;;;;;7.33;3.90;;;;;;;9.99;100.00;100122.13;2086078;28;20430;-62
2023/03/27 00:32:35;;;;;;;7.80;3.80;;;;;;;10.31;100.00;100160.75;2080880;28;20419;-63
2023/03/27 00:33:36;;;;;;;6.17;3.63;;;;;;;10.33;100.00;100171.41;2080598;28;20715;-62
2023/03/27 00:34:36;;;;;;;5.70;3.40;;;;;;;10.32;100.00;100167.06;2081560;28;20181;-62
2023/03/27 00:35:37;;;;;;;6.93;3.70;;;;;;;10.30;100.00;100169.53;2081263;28;21220;-62
2023/03/27 00:36:38;;;;;;;9.20;3.83;;;;;;;10.28;100.00;100167.19;2074202;28;20183;-62
2023/03/27 00:37:39;;;;;;;9.50;3.70;;;;;;;10.24;100.00;100163.75;2079110;28;20642;-62
2023/03/27 00:38:39;;;;;;;7.33;3.70;;;;;;;10.25;100.00;100156.97;2075745;28;20177;-62
2023/03/27 00:39:40;;;;;;;6.23;3.50;;;;;;;10.19;100.00;100155.22;2076499;28;20452;-62
2023/03/27 00:40:45;;;;;;;8.07;3.70;;;;;;;10.24;100.00;100168.53;2080935;28;20708;-62
2023/03/27 00:41:47;;;;;;;8.63;4.00;;;;;;;10.20;100.00;100156.78;2081171;28;20418;-62
2023/03/27 00:42:50;;;;;;;9.30;3.50;;;;;;;10.18;100.00;100153.66;2081227;28;20484;-63
2023/03/27 00:43:53;;;;;;;6.70;3.53;;;;;;;10.14;100.00;100161.31;2081240;28;20400;-62
2023/03/27 00:44:53;;;;;;;6.70;4.03;;;;;;;10.13;100.00;100154.19;2081591;28;20513;-62
2023/03/27 00:46:00;;;;;;;10.93;4.50;;;;;;;9.53;100.00;100081.19;2080735;28;20445;-62
2023/03/27 00:47:03;;;;;;;11.47;4.30;;;;;;;9.29;100.00;100032.91;2087793;28;20215;-62
2023/03/27 00:48:07;;;;;;;9.50;4.90;;;;;;;10.04;100.00;100146.53;2080990;28;20470;-62
2023/03/27 00:49:10;;;;;;;9.83;5.40;;;;;;;10.03;100.00;100150.50;2081458;28;20441;-63
2023/03/27 00:50:17;;;;;;;13.23;4.87;;;;;;;10.01;100.00;100143.84;2074678;28;20439;-62
2023/03/27 00:51:21;;;;;;;13.80;4.90;;;;;;;10.03;100.00;100146.94;2078666;28;21156;-62
2023/03/27 00:52:21;;;;;;;11.13;4.57;;;;;;;10.06;100.00;100146.88;2085171;28;20447;-62
2023/03/27 00:53:26;;;;;;;19.93;5.20;;;;;;;10.08;100.00;100143.66;2081387;28;20624;-62
2023/03/27 00:54:33;;;;;;;12.50;4.90;;;;;;;10.07;100.00;100142.13;2081204;28;20190;-62
2023/03/27 00:55:37;;;;;;;13.43;5.77;;;;;;;10.03;100.00;100133.88;2083665;28;20885;-62
2023/03/27 00:56:38;;;;;;;10.77;4.87;;;;;;;10.05;100.00;100139.78;2087707;28;20424;-62
2023/03/27 00:57:41;;;;;;;10.33;5.97;;;;;;;10.02;100.00;100134.31;2080725;28;20515;-62
2023/03/27 00:59:01;;;;;;;12.43;5.55;;;;;;;10.09;100.00;100143.22;2089262;28;20182;-62
2023/03/27 01:00:11;;;;;;;10.77;6.27;;;;;;;10.11;100.00;100151.88;2080319;28;20172;-62
2023/03/27 01:01:15;;;;;;;9.32;5.57;;;;;;;10.12;100.00;100127.72;2081160;28;20463;-62
2023/03/27 01:02:16;;;;;;;9.30;4.33;;;;;;;10.01;100.00;100105.88;2081194;28;20185;-62
2023/03/27 01:03:18;;;;;;;9.53;5.17;;;;;;;10.16;100.00;100125.63;2081480;28;21085;-62
2023/03/27 01:04:21;;;;;;;10.03;4.87;;;;;;;9.87;100.00;100081.38;2073105;28;20517;-62
2023/03/27 01:05:21;;;;;;;7.70;4.90;;;;;;;9.92;100.00;100096.66;2083318;28;20479;-62
2023/03/27 01:06:22;;;;;;;13.03;7.00;;;;;;;9.13;100.00;99974.88;2083055;28;20768;-62
2023/03/27 01:07:23;;;;;;;10.00;6.73;;;;;;;10.07;100.00;100123.53;2081238;28;20195;-62
2023/03/27 01:08:26;;;;;;;11.65;4.68;;;;;;;8.96;100.00;99953.28;2080753;28;20633;-62
2023/03/27 01:09:26;;;;;;;9.60;4.85;;;;;;;9.37;100.00;100014.88;2081206;28;20177;-62
2023/03/27 01:10:38;;;;;;;26.70;6.10;;;;;;;10.04;100.00;100126.41;2084332;28;20189;-62
2023/03/27 01:12:05;;;;;;;13.97;4.70;;;;;;;10.11;100.00;100128.94;2080961;28;20711;-62
2023/03/27 01:13:17;;;;;;;8.70;4.63;;;;;;;10.10;100.00;100124.63;2081291;28;20918;-62
2023/03/27 01:15:14;;;;;;;11.27;4.73;;;;;;;10.05;100.00;100111.34;2081085;28;20467;-62
2023/03/27 01:16:36;;;;;;;7.07;4.50;;;;;;;9.94;100.00;100106.06;2035255;28;20445;-62
2023/03/27 01:17:36;;;;;;;11.38;4.32;;;;;;;9.96;100.00;100111.97;2055250;28;20203;-62
2023/03/27 01:18:52;;;;;;;11.47;4.77;;;;;;;9.95;100.00;100106.88;2070426;28;20241;-63
2023/03/27 01:20:31;;;;;;;12.35;6.30;;;;;;;9.93;100.00;100110.06;2088798;28;20196;-62
2023/03/27 01:22:02;;;;;;;11.57;6.95;;;;;;;9.94;100.00;100106.06;2081245;28;20201;-62
2023/03/27 01:23:30;;;;;;;8.50;4.32;;;;;;;9.95;100.00;100101.31;2080970;28;20177;-62
2023/03/27 01:24:59;;;;;;;8.43;5.07;;;;;;;9.92;100.00;100096.66;2085701;28;20195;-62
2023/03/27 01:26:57;;;;;;;10.30;7.03;;;;;;;9.89;100.00;100103.09;2081744;28;20181;-62
2023/03/27 01:28:03;;;;;;;14.65;4.75;;;;;;;9.92;100.00;100096.66;2047237;29;20193;-62
2023/03/27 01:29:42;;;;;;;11.18;5.65;;;;;;;9.83;100.00;100077.16;2050597;28;20207;-62
2023/03/27 01:31:00;;;;;;;11.45;5.68;;;;;;;9.82;100.00;100089.44;2046613;29;20962;-62
2023/03/27 01:32:16;;;;;;;10.00;6.00;;;;;;;9.81;100.00;100085.13;2047627;29;20196;-62
2023/03/27 01:33:53;;;;;;;9.60;4.88;;;;;;;9.81;100.00;100085.13;2054139;28;20288;-62
2023/03/27 01:35:18;;;;;;;8.73;4.60;;;;;;;9.84;100.00;100079.47;2084204;28;20187;-62
2023/03/27 01:36:43;;;;;;;8.50;5.55;;;;;;;9.66;100.00;100067.38;2080885;28;20586;-62
2023/03/27 01:38:19;;;;;;;8.63;6.00;;;;;;;9.57;100.00;100064.47;2072319;28;20182;-62
2023/03/27 01:39:35;;;;;;;8.55;5.30;;;;;;;9.59;100.00;100067.59;2043913;29;20214;-62
2023/03/27 01:40:38;;;;;;;8.50;5.20;;;;;;;9.64;100.00;100067.06;2051158;28;20669;-62
2023/03/27 01:42:03;;;;;;;11.05;5.40;;;;;;;9.69;100.00;100064.50;2080878;28;20678;-63
2023/03/27 01:43:12;;;;;;;7.75;4.88;;;;;;;9.73;100.00;100061.66;2080801;28;20232;-62
2023/03/27 01:44:24;;;;;;;7.22;5.07;;;;;;;9.71;100.00;100053.78;2081008;28;20200;-62
2023/03/27 01:45:38;;;;;;;6.80;4.45;;;;;;;9.69;100.00;100050.69;2081061;28;20180;-62
2023/03/27 01:46:47;;;;;;;8.68;4.68;;;;;;;9.16;100.00;99987.03;2081094;28;20651;-62
2023/03/27 01:47:59;;;;;;;8.00;4.82;;;;;;;9.60;100.00;100042.28;2080396;28;20193;-62
2023/03/27 01:49:16;;;;;;;7.53;4.38;;;;;;;9.03;100.00;99966.91;2081140;28;20220;-62
2023/03/27 01:50:30;;;;;;;16.10;5.18;;;;;;;9.47;100.00;100027.63;2080604;28;20259;-62
2023/03/27 01:51:35;;;;;;;11.60;4.70;;;;;;;9.52;100.00;100035.38;2072850;28;20182;-63
2023/03/27 01:52:40;;;;;;;8.07;4.50;;;;;;;9.66;100.00;100057.09;2073121;28;20188;-62
2023/03/27 01:53:50;;;;;;;8.23;4.65;;;;;;;9.65;100.00;100050.03;2072655;28;20427;-62
2023/03/27 01:54:57;;;;;;;7.13;4.05;;;;;;;9.63;100.00;100041.38;2073137;28;20247;-62
2023/03/27 01:56:17;;;;;;;7.70;4.05;;;;;;;9.38;100.00;100033.00;2080422;28;20202;-62
2023/03/27 01:57:24;;;;;;;7.85;4.47;;;;;;;9.25;100.00;100043.28;2080355;28;20636;-62
2023/03/27 01:58:48;;;;;;;6.88;4.25;;;;;;;9.34;100.00;100056.47;2080635;28;20173;-62
2023/03/27 01:59:55;;;;;;;7.38;4.10;;;;;;;8.97;100.00;99990.75;2074269;28;20241;-62
2023/03/27 02:01:00;;;;;;;7.93;4.18;;;;;;;9.46;100.00;100053.72;2080758;28;20183;-62
2023/03/27 02:02:07;;;;;;;6.00;4.30;;;;;;;9.41;100.00;100040.44;2080664;28;20182;-62
2023/03/27 02:03:18;;;;;;;8.85;3.47;;;;;;;9.32;100.00;100034.78;2080878;28;20859;-62
2023/03/27 02:04:27;;;;;;;6.03;4.03;;;;;;;9.23;100.00;100037.38;2082041;28;20195;-62
2023/03/27 02:05:55;;;;;;;6.55;4.28;;;;;;;9.33;100.00;100050.13;2087765;28;20171;-62
2023/03/27 02:07:04;;;;;;;5.55;3.72;;;;;;;9.39;100.00;100047.63;2076335;28;20215;-62
2023/03/27 02:08:18;;;;;;;6.45;4.07;;;;;;;9.39;100.00;100037.31;2080392;28;20210;-62
2023/03/27 02:09:34;;;;;;;9.23;3.85;;;;;;;9.13;100.00;100010.06;2080761;28;20192;-62
2023/03/27 02:10:40;;;;;;;7.25;4.00;;;;;;;8.86;100.00;99973.69;2081695;28;20193;-62
2023/03/27 02:12:10;;;;;;;7.57;3.60;;;;;;;9.00;100.00;100007.25;2080661;28;20226;-62
2023/03/27 02:13:20;;;;;;;6.07;3.67;;;;;;;9.34;100.00;100048.94;2070479;28;20210;-62
2023/03/27 02:14:27;;;;;;;6.45;3.55;;;;;;;9.39;100.00;100031.78;2080865;28;20625;-62
2023/03/27 02:15:33;;;;;;;7.40;3.83;;;;;;;9.39;100.00;100029.03;2080519;28;20188;-61
2023/03/27 02:16:41;;;;;;;7.20;4.00;;;;;;;9.32;100.00;100028.47;2080647;28;20200;-62
2023/03/27 02:17:55;;;;;;;5.20;3.58;;;;;;;9.30;100.00;100028.13;2080150;28;20533;-62
2023/03/27 02:19:00;;;;;;;6.57;3.92;;;;;;;8.39;100.00;99876.72;2080919;28;20177;-62
2023/03/27 02:20:10;;;;;;;7.43;4.05;;;;;;;9.39;100.00;100023.50;2087546;28;20202;-62
2023/03/27 02:21:12;;;;;;;10.70;4.47;;;;;;;9.37;100.00;100019.66;2081022;28;20231;-62
2023/03/27 02:22:14;;;;;;;13.55;5.10;;;;;;;9.35;100.00;100024.81;2081908;28;20205;-62
2023/03/27 02:23:14;;;;;;;19.67;5.28;;;;;;;9.40;100.00;100016.78;2080647;28;20189;-62
2023/03/27 02:24:18;;;;;;;13.37;4.73;;;;;;;8.75;100.00;99898.59;2080531;28;20280;-63
2023/03/27 02:25:34;;;;;;;7.68;4.07;;;;;;;9.48;100.00;100020.88;2080680;28;20194;-62
2023/03/27 02:26:35;;;;;;;4.70;3.65;;;;;;;9.36;100.00;100012.53;2080607;28;20631;-62
2023/03/27 02:27:43;;;;;;;7.33;4.00;;;;;;;9.32;100.00;100006.34;2080164;28;20257;-62
2023/03/27 02:28:53;;;;;;;12.45;4.20;;;;;;;9.36;100.00;100007.78;2077157;28;20485;-62
2023/03/27 02:30:07;;;;;;;8.18;4.47;;;;;;;9.47;100.00;100010.25;2079566;28;20206;-62
2023/03/27 02:31:25;;;;;;;12.43;4.30;;;;;;;9.56;100.00;100008.41;2085090;28;20185;-62
2023/03/27 02:32:39;;;;;;;14.82;4.25;;;;;;;9.62;100.00;100006.63;2083028;28;20197;-62
2023/03/27 02:33:50;;;;;;;15.07;5.15;;;;;;;9.52;100.00;99977.28;2086764;28;20611;-62
2023/03/27 02:35:02;;;;;;;10.27;4.43;;;;;;;9.69;100.00;100008.41;2082109;28;20198;-62
2023/03/27 02:36:08;;;;;;;6.03;3.67;;;;;;;9.71;100.00;99992.94;2080480;28;20187;-62
2023/03/27 02:37:30;;;;;;;8.27;4.00;;;;;;;9.60;100.00;99989.72;2080666;28;20193;-62
2023/03/27 02:38:51;;;;;;;7.63;4.10;;;;;;;9.69;100.00;100000.88;2080636;28;20440;-62
2023/03/27 02:40:05;;;;;;;7.80;3.97;;;;;;;9.77;100.00;99987.59;2071956;28;20177;-62
2023/03/27 02:41:27;;;;;;;6.17;3.80;;;;;;;9.83;100.00;99977.53;2079756;28;20227;-62
2023/03/27 02:42:58;;;;;;;6.25;3.97;;;;;;;9.78;100.00;99972.56;2080430;28;20435;-62
2023/03/27 02:44:05;;;;;;;8.23;4.60;;;;;;;9.69;100.00;99975.22;2080426;28;20284;-63
2023/03/27 02:45:23;;;;;;;8.45;4.57;;;;;;;9.21;100.00;99928.47;2080513;28;20190;-62
2023/03/27 02:46:47;;;;;;;11.18;4.40;;;;;;;9.82;100.00;99989.81;2080599;28;20194;-63
2023/03/27 02:47:55;;;;;;;7.82;4.05;;;;;;;9.86;100.00;99994.06;2080344;28;20154;-63
2023/03/27 02:49:03;;;;;;;7.47;4.00;;;;;;;9.87;100.00;100000.34;2072884;28;20610;-62
2023/03/27 02:50:18;;;;;;;8.68;4.18;;;;;;;9.77;100.00;99982.84;2080175;28;20161;-62
2023/03/27 02:51:26;;;;;;;28.67;6.38;;;;;;;9.95;100.00;100007.22;2072822;28;20210;-62
2023/03/27 02:52:41;;;;;;;14.73;4.60;;;;;;;9.99;100.00;100005.88;2080300;28;20162;-63
2023/03/27 02:53:47;;;;;;;6.97;3.83;;;;;;;9.98;100.00;100011.84;2080322;28;20469;-62
2023/03/27 02:54:54;;;;;;;7.30;4.00;;;;;;;9.99;100.00;100002.34;2080503;28;20415;-62
2023/03/27 02:55:58;;;;;;;6.53;3.67;;;;;;;9.95;100.00;99996.91;2073865;28;20259;-62
2023/03/27 02:57:05;;;;;;;7.07;3.90;;;;;;;9.84;100.00;99995.72;2072607;28;20444;-62
2023/03/27 02:58:11;;;;;;;6.55;4.05;;;;;;;9.83;100.00;99988.59;2071899;28;20934;-62
2023/03/27 02:59:18;;;;;;;6.13;4.32;;;;;;;9.94;100.00;100000.16;2072588;28;20789;-62
2023/03/27 03:00:24;;;;;;;6.40;4.15;;;;;;;9.95;100.00;99990.63;2071960;28;20190;-62
2023/03/27 03:01:26;;;;;;;7.40;5.13;;;;;;;9.91;100.00;99999.03;2080011;28;20747;-62
2023/03/27 03:02:32;;;;;;;7.37;5.13;;;;;;;9.62;100.00;99942.22;2064731;28;20523;-62
2023/03/27 03:03:40;;;;;;;7.03;5.05;;;;;;;9.88;100.00;99986.06;2070557;28;20959;-62
2023/03/27 03:04:55;;;;;;;7.50;5.00;;;;;;;9.69;100.00;99975.22;2073684;28;20183;-63
2023/03/27 03:05:57;;;;;;;12.70;5.50;;;;;;;9.30;100.00;99903.72;2079040;28;20903;-62
2023/03/27 03:06:57;;;;;;;8.65;5.68;;;;;;;9.79;100.00;99985.19;2080370;28;20452;-62
2023/03/27 03:07:58;;;;;;;8.77;4.87;;;;;;;9.93;100.00;99995.81;2079540;28;20203;-62
2023/03/27 03:09:05;;;;;;;7.67;5.20;;;;;;;9.93;100.00;99998.56;2080711;28;20186;-62
2023/03/27 03:10:10;;;;;;;6.77;4.27;;;;;;;9.90;100.00;99982.88;2084417;28;20616;-62
2023/03/27 03:11:13;;;;;;;8.87;5.17;;;;;;;9.85;100.00;99981.41;2085371;28;20434;-62
2023/03/27 03:12:13;;;;;;;8.90;5.15;;;;;;;9.68;100.00;99973.69;2080666;28;20445;-62
2023/03/27 03:13:15;;;;;;;8.97;5.23;;;;;;;9.52;100.00;99979.28;2081469;28;20210;-62
2023/03/27 03:14:19;;;;;;;9.32;4.93;;;;;;;9.69;100.00;99987.03;2074687;28;20192;-62
2023/03/27 03:15:20;;;;;;;12.13;5.53;;;;;;;9.78;100.00;99995.47;2074055;28;20193;-62
2023/03/27 03:16:21;;;;;;;12.87;4.93;;;;;;;9.85;100.00;99995.25;2073170;28;20571;-62
2023/03/27 03:17:22;;;;;;;15.02;6.20;;;;;;;9.93;100.00;99996.59;2076408;28;20200;-62
2023/03/27 03:18:23;;;;;;;11.47;5.53;;;;;;;9.97;100.00;99988.16;2077274;28;20317;-62
2023/03/27 03:19:23;;;;;;;12.00;6.00;;;;;;;10.00;100.00;99993.59;2076722;28;20663;-62
2023/03/27 03:20:28;;;;;;;9.47;5.87;;;;;;;10.05;100.00;99997.84;2084546;28;20860;-62
2023/03/27 03:21:29;;;;;;;12.00;6.50;;;;;;;10.05;100.00;99998.59;2084169;28;20591;-62
2023/03/27 03:22:30;;;;;;;6.53;4.87;;;;;;;9.87;100.00;99975.44;2081285;28;20446;-62
2023/03/27 03:23:30;;;;;;;11.53;5.37;;;;;;;9.97;100.00;99985.41;2081568;28;20172;-62
2023/03/27 03:24:32;;;;;;;12.03;5.27;;;;;;;10.06;100.00;99999.38;2082084;28;20423;-62
2023/03/27 03:25:32;;;;;;;9.80;4.90;;;;;;;10.06;100.00;99999.38;2081819;28;20657;-62
2023/03/27 03:26:33;;;;;;;11.73;5.20;;;;;;;10.08;100.00;99996.94;2077483;28;20585;-62
2023/03/27 03:27:34;;;;;;;6.60;4.50;;;;;;;9.96;100.00;99990.19;2078817;28;20204;-62
2023/03/27 03:28:34;;;;;;;7.03;4.50;;;;;;;9.88;100.00;99988.03;2081525;28;20280;-62
2023/03/27 03:29:36;;;;;;;7.53;4.83;;;;;;;9.52;100.00;99946.88;2078468;28;20190;-62
2023/03/27 03:30:40;;;;;;;9.10;4.75;;;;;;;9.90;100.00;99994.69;2075099;28;20195;-63
2023/03/27 03:31:44;;;;;;;8.23;4.80;;;;;;;9.93;100.00;99988.28;2081393;28;20191;-62
2023/03/27 03:32:46;;;;;;;9.67;4.90;;;;;;;9.44;100.00;99917.88;2081361;28;20502;-62
2023/03/27 03:33:46;;;;;;;11.00;7.77;;;;;;;9.85;100.00;99989.72;2077206;28;20933;-63
2023/03/27 03:34:46;;;;;;;12.83;8.23;;;;;;;9.35;100.00;99909.47;2078168;28;20831;-62
2023/03/27 03:35:49;;;;;;;11.27;7.00;;;;;;;9.38;100.00;99924.41;2076505;28;20202;-62
2023/03/27 03:36:49;;;;;;;15.95;10.43;;;;;;;9.73;100.00;99982.19;2079368;28;20585;-62
2023/03/27 03:37:51;;;;;;;13.10;9.77;;;;;;;9.73;100.00;99986.97;2081058;28;20198;-63
2023/03/27 03:38:51;;;;;;;15.73;8.33;;;;;;;9.77;100.00;99976.53;2080668;28;20181;-61
2023/03/27 03:39:52;;;;;;;14.10;9.57;;;;;;;9.65;100.00;99964.28;2075708;28;20925;-62
2023/03/27 03:40:57;;;;;;;17.43;11.50;;;;;;;9.58;100.00;99967.22;2081506;28;20606;-62
2023/03/27 03:41:57;;;;;;;13.95;9.80;;;;;;;9.66;100.00;99967.78;2077031;28;20705;-62
2023/03/27 03:42:58;;;;;;;13.30;9.63;;;;;;;9.75;100.00;99982.53;2082024;28;20602;-62
2023/03/27 03:43:58;;;;;;;16.80;11.10;;;;;;;9.81;100.00;99979.97;2083932;28;20187;-62
2023/03/27 03:44:59;;;;;;;18.40;12.30;;;;;;;9.87;100.00;99990.06;2081691;28;20185;-62
2023/03/27 03:45:59;;;;;;;17.90;12.23;;;;;;;9.85;100.00;99972.34;2081519;28;20203;-62
2023/03/27 03:47:00;;;;;;;21.03;13.27;;;;;;;9.79;100.00;99963.06;2079542;28;20683;-62
2023/03/27 03:48:00;;;;;;;24.33;12.57;;;;;;;9.77;100.00;99968.25;2078443;28;20200;-62
2023/03/27 03:49:01;;;;;;;20.57;11.53;;;;;;;9.19;100.00;99862.56;2077668;28;20260;-62
2023/03/27 03:50:01;;;;;;;21.27;13.53;;;;;;;9.88;100.00;99968.69;2081007;28;20176;-62
2023/03/27 03:51:02;;;;;;;19.80;11.60;;;;;;;9.86;100.00;99968.34;2082000;28;20179;-62
2023/03/27 03:52:02;;;;;;;16.17;10.03;;;;;;;9.88;100.00;99972.22;2081081;28;20257;-62
2023/03/27 03:53:03;;;;;;;16.57;10.23;;;;;;;9.97;100.00;99993.69;2081650;28;20223;-62
2023/03/27 03:54:08;;;;;;;15.07;9.63;;;;;;;10.04;100.00;99983.22;2081347;28;20580;-62
2023/03/27 03:55:10;;;;;;;15.60;9.50;;;;;;;10.05;100.00;99981.22;2081509;28;20671;-62
2023/03/27 03:56:11;;;;;;;12.15;7.57;;;;;;;9.91;100.00;99962.28;2080599;28;20536;-62
2023/03/27 03:57:11;;;;;;;11.00;7.30;;;;;;;9.96;100.00;99981.09;2076444;28;20184;-62
2023/03/27 03:58:12;;;;;;;9.00;7.20;;;;;;;9.95;100.00;99987.84;2081058;28;20678;-62
2023/03/27 03:59:12;;;;;;;11.37;7.60;;;;;;;10.01;100.00;99986.84;2074995;28;20210;-62
2023/03/27 04:00:15;;;;;;;10.63;6.77;;;;;;;10.03;100.00;99986.38;2074277;28;20656;-63
2023/03/27 04:01:19;;;;;;;14.57;6.28;;;;;;;10.09;100.00;99995.75;2079060;28;20245;-62
2023/03/27 04:02:28;;;;;;;14.33;5.27;;;;;;;9.70;100.00;99926.97;2077648;28;20725;-63
2023/03/27 04:03:32;;;;;;;7.33;4.80;;;;;;;10.21;100.00;99992.19;2081206;28;20444;-63
2023/03/27 04:04:33;;;;;;;9.27;4.68;;;;;;;10.20;100.00;99990.63;2081652;28;20436;-65
2023/03/27 04:05:37;;;;;;;6.17;4.00;;;;;;;10.23;100.00;99981.44;2077729;28;20393;-63
2023/03/27 04:06:38;;;;;;;7.07;4.40;;;;;;;10.21;100.00;99987.44;2075084;28;20239;-64
2023/03/27 04:07:39;;;;;;;7.60;4.60;;;;;;;10.21;100.00;99964.50;2077346;28;20436;-63
2023/03/27 04:08:39;;;;;;;6.73;4.40;;;;;;;10.20;100.00;99969.25;2081516;28;20264;-68
2023/03/27 04:09:39;;;;;;;7.67;4.20;;;;;;;10.10;100.00;99969.59;2081249;28;20430;-69
2023/03/27 04:10:40;;;;;;;7.70;4.47;;;;;;;10.11;100.00;99980.25;2081094;28;20231;-67
2023/03/27 04:11:40;;;;;;;8.07;4.40;;;;;;;10.11;100.00;99983.00;2089636;28;20178;-67
2023/03/27 04:12:47;;;;;;;7.37;4.40;;;;;;;10.16;100.00;99968.59;2082412;28;20200;-68
2023/03/27 04:13:48;;;;;;;8.35;4.60;;;;;;;9.92;100.00;99947.22;2074313;28;20297;-67
2023/03/27 04:14:49;;;;;;;6.00;4.43;;;;;;;10.08;100.00;99955.41;2075801;28;20190;-69
2023/03/27 04:15:50;;;;;;;8.90;4.40;;;;;;;10.03;100.00;99964.25;2080814;28;20666;-67
2023/03/27 04:16:50;;;;;;;8.00;4.10;;;;;;;9.72;100.00;99913.44;2081482;28;20708;-67
2023/03/27 04:17:51;;;;;;;5.07;3.60;;;;;;;10.03;100.00;99953.16;2080686;28;20174;-63
2023/03/27 04:18:53;;;;;;;7.87;3.97;;;;;;;9.94;100.00;99942.03;2081186;28;20225;-66
2023/03/27 04:19:54;;;;;;;5.88;3.92;;;;;;;9.85;100.00;99934.38;2080344;28;20201;-67
2023/03/27 04:20:57;;;;;;;8.77;4.60;;;;;;;9.82;100.00;99935.28;2076012;28;20198;-68
2023/03/27 04:22:01;;;;;;;5.93;4.10;;;;;;;9.77;100.00;99955.19;2080823;28;20709;-68
2023/03/27 04:23:01;;;;;;;6.20;4.07;;;;;;;9.12;100.00;99860.00;2073327;28;20176;-65
2023/03/27 04:24:02;;;;;;;7.67;4.63;;;;;;;9.93;100.00;99970.88;2081832;28;20206;-66
2023/03/27 04:25:05;;;;;;;10.63;7.67;;;;;;;9.97;100.00;99954.94;2081313;28;20186;-67
2023/03/27 04:26:06;;;;;;;8.57;5.22;;;;;;;9.97;100.00;99952.19;2079819;28;20290;-66
2023/03/27 04:27:07;;;;;;;6.67;5.17;;;;;;;10.00;100.00;99979.00;2081142;28;20184;-67
2023/03/27 04:28:09;;;;;;;10.45;7.07;;;;;;;10.05;100.00;100000.59;2079964;28;20174;-66
2023/03/27 04:29:09;;;;;;;16.80;13.83;;;;;;;10.10;100.00;100000.81;2079399;28;20194;-73
2023/03/27 04:30:14;;;;;;;18.07;14.30;;;;;;;10.22;100.00;100002.03;2080184;28;20491;-72
2023/03/27 04:31:14;;;;;;;24.20;19.70;;;;;;;10.23;100.00;99998.81;2069974;28;20680;-70
2023/03/27 04:32:18;;;;;;;17.70;11.83;;;;;;;9.96;100.00;99945.09;2078527;28;20461;-68
2023/03/27 04:33:19;;;;;;;10.23;7.95;;;;;;;10.38;100.00;99969.44;2083717;28;20640;-68
2023/03/27 04:34:21;;;;;;;8.37;5.33;;;;;;;10.20;100.00;99954.66;2080849;28;20283;-69
2023/03/27 04:35:22;;;;;;;17.75;15.23;;;;;;;10.14;100.00;99940.56;2079260;28;20188;-69
2023/03/27 04:36:23;;;;;;;22.38;18.30;;;;;;;10.02;100.00;99933.03;2078950;28;20212;-68
2023/03/27 04:37:23;;;;;;;15.10;8.18;;;;;;;10.08;100.00;99924.97;2079570;28;20178;-67
2023/03/27 04:38:25;;;;;;;20.77;9.80;;;;;;;10.04;100.00;99924.31;2079617;28;20282;-68
2023/03/27 04:39:25;;;;;;;20.13;9.85;;;;;;;10.01;100.00;99912.13;2079123;28;20654;-67
2023/03/27 04:40:26;;;;;;;14.87;9.30;;;;;;;9.95;100.00;99900.03;2078823;28;20582;-70
2023/03/27 04:41:28;;;;;;;15.03;10.77;;;;;;;9.98;100.00;99879.00;2081829;28;20222;-71
2023/03/27 04:42:28;;;;;;;15.90;11.50;;;;;;;9.91;100.00;99868.97;2066171;28;20190;-64
2023/03/27 04:43:29;;;;;;;13.83;10.27;;;;;;;9.90;100.00;99859.09;2075754;28;20382;-64
2023/03/27 04:44:30;;;;;;;12.13;9.10;;;;;;;9.84;100.00;99849.06;2074324;28;20657;-65
2023/03/27 04:45:31;;;;;;;11.13;8.90;;;;;;;9.92;100.00;99851.13;2076757;28;20185;-64
2023/03/27 04:46:31;;;;;;;7.28;4.72;;;;;;;9.83;100.00;99850.25;2079774;28;20251;-64
2023/03/27 04:47:36;;;;;;;6.13;4.60;;;;;;;9.91;100.00;99835.75;2060530;28;20272;-63
2023/03/27 04:48:37;;;;;;;7.33;4.37;;;;;;;9.98;100.00;99848.56;2074542;28;20739;-64
2023/03/27 04:49:39;;;;;;;7.70;4.80;;;;;;;9.88;100.00;99817.25;2074931;28;20877;-64
2023/03/27 04:50:43;;;;;;;10.57;5.10;;;;;;;10.14;100.00;99831.84;2078387;28;20326;-64
2023/03/27 04:51:46;;;;;;;6.07;4.20;;;;;;;10.21;100.00;99851.75;2080562;28;20764;-63
2023/03/27 04:52:47;;;;;;;7.88;4.63;;;;;;;10.20;100.00;99849.44;2077954;28;20238;-63
2023/03/27 04:53:47;;;;;;;7.73;5.13;;;;;;;10.22;100.00;99846.97;2072285;28;20935;-63
2023/03/27 04:54:48;;;;;;;7.83;4.97;;;;;;;10.15;100.00;99830.63;2068863;28;20301;-64
2023/03/27 04:55:52;;;;;;;7.63;5.40;;;;;;;10.25;100.00;99838.53;2076771;28;20205;-64
2023/03/27 04:56:53;;;;;;;6.43;4.82;;;;;;;10.20;100.00;99828.03;2080293;28;20279;-65
2023/03/27 04:57:56;;;;;;;7.90;5.00;;;;;;;10.27;100.00;99829.78;2082715;28;20729;-66
2023/03/27 04:58:56;;;;;;;5.93;4.03;;;;;;;10.37;100.00;99831.41;2081721;28;20431;-66
2023/03/27 04:59:58;;;;;;;6.37;3.90;;;;;;;10.07;100.00;99769.19;2081928;28;20220;-66
2023/03/27 05:00:58;;;;;;;7.90;4.17;;;;;;;10.55;100.00;99826.78;2081277;28;20202;-65
2023/03/27 05:02:00;;;;;;;5.33;3.50;;;;;;;10.02;100.00;99728.22;2080434;28;20569;-66
2023/03/27 05:03:00;;;;;;;5.20;3.33;;;;;;;10.56;100.00;99810.94;2080555;28;20198;-65
2023/03/27 05:04:01;;;;;;;4.67;3.13;;;;;;;10.53;100.00;99796.00;2080552;28;20467;-65
2023/03/27 05:05:01;;;;;;;4.97;3.10;;;;;;;10.43;100.00;99797.16;2065735;28;20680;-65
2023/03/27 05:06:03;;;;;;;5.53;3.50;;;;;;;10.31;100.00;99773.06;2084894;28;20183;-65